Zanjan, Iran
Current Conditions -  °F | °C
As of 8:00 AM on Monday 20 Oct 2014 (Local Time) from OITZ Reporting Station
Scattered Clouds Scattered Clouds  
Wind Chill: 57°   Ceiling: Unl
Heat Index: 57°   Visibility: 6mi
Dew Point: 39°   Wind: 21mph
Humidity: 51%   Direction: 90°E
Pressure: 29.97"   Gusts: NA
Location:  36.67°N, 48.5°E
Report Text: OITZ 200500Z 09018KT 9999 FEW030CB SCT035 SCT080 14/04 Q1015
Loading
Personal Weather Stations






























Interactive Weather Map
Tropical Storm Tracking
New forecast layout! Learn more

10-Day Weather Forecast

Advertisements
Track Severe Weather on mobile